Time;durP1;ratioP1;P1;durP2;ratioP2;P2;SDS_P1;SDS_P2;PMS_P1;PMS_P2;Temp;Humidity;BMP_temperature;BMP_pressure;BME280_temperature;BME280_humidity;BME280_pressure;Samples;Min_cycle;Max_cycle;Signal;HPM_P1;HPM_P2
2021/01/13 00:00:12;;;;;;;1.63;1.02;;;0.60;1.00;;;;;;5033037;28;20690;-74
2021/01/13 00:09:22;;;;;;;1.50;1.40;;;;;;;;;;5057613;28;20159;-85
2021/01/13 00:11:57;;;;;;;1.65;1.20;;;0.40;1.00;;;;;;5057725;28;20235;-84
2021/01/13 00:14:23;;;;;;;8.43;1.63;;;0.30;1.00;;;;;;5056886;28;20259;-75
2021/01/13 00:17:23;;;;;;;1.40;1.08;;;0.30;1.00;;;;;;5056685;28;20164;-75
2021/01/13 00:20:07;;;;;;;1.98;1.20;;;0.20;1.00;;;;;;5046964;28;20168;-75
2021/01/13 00:26:24;;;;;;;2.83;1.85;;;0.10;1.00;;;;;;5056937;28;20191;-84
2021/01/13 00:28:59;;;;;;;3.15;0.88;;;0.10;1.00;;;;;;5056571;28;20675;-74
2021/01/13 00:35:06;;;;;;;1.65;1.30;;;0.00;1.00;;;;;;5057098;28;20198;-84
2021/01/13 00:40:54;;;;;;;5.85;1.55;;;0.00;1.00;;;;;;5055572;28;20233;-84
2021/01/13 00:43:20;;;;;;;1.30;1.20;;;0.00;1.00;;;;;;5055906;28;20203;-84
2021/01/13 00:45:46;;;;;;;7.77;1.90;;;0.00;1.00;;;;;;5047864;28;20275;-84
2021/01/13 00:52:11;;;;;;;4.00;1.55;;;-0.10;1.00;;;;;;5056365;28;20190;-75
2021/01/13 00:57:59;;;;;;;0.70;0.70;;;-0.10;1.00;;;;;;5052931;28;20183;-84
2021/01/13 01:07:39;;;;;;;5.43;1.52;;;-0.30;1.00;;;;;;5036234;28;20210;-74
2021/01/13 01:13:37;;;;;;;1.52;1.42;;;-0.20;1.00;;;;;;5036220;28;20179;-74
2021/01/13 01:16:03;;;;;;;1.20;0.93;;;;;;;;;;5035421;28;20149;-75
2021/01/13 01:18:29;;;;;;;1.10;1.02;;;-0.20;1.00;;;;;;5035490;28;20164;-75
2021/01/13 01:27:38;;;;;;;1.58;1.02;;;0.10;1.00;;;;;;5056208;28;20229;-75
2021/01/13 01:36:47;;;;;;;1.50;0.90;;;0.40;1.00;;;;;;5037698;28;20187;-84
2021/01/13 01:42:35;;;;;;;4.10;0.80;;;0.50;1.00;;;;;;5055524;28;20226;-75
2021/01/13 01:45:04;;;;;;;1.67;1.10;;;0.70;1.00;;;;;;5051815;28;20180;-74
2021/01/13 01:48:05;;;;;;;1.02;1.02;;;0.70;1.00;;;;;;5045384;28;20531;-75
2021/01/13 01:50:45;;;;;;;0.90;0.90;;;0.80;1.00;;;;;;5055341;28;20159;-75
2021/01/13 02:04:05;;;;;;;0.90;0.90;;;0.80;1.00;;;;;;5049207;28;20207;-84
2021/01/13 02:07:08;;;;;;;2.72;1.35;;;0.80;1.00;;;;;;5051154;28;20175;-84
2021/01/13 02:10:23;;;;;;;0.70;0.70;;;0.80;1.00;;;;;;5040665;28;20508;-84
2021/01/13 02:12:52;;;;;;;4.25;1.73;;;0.90;1.00;;;;;;5034766;28;20327;-75
2021/01/13 02:15:19;;;;;;;0.73;0.70;;;0.90;1.00;;;;;;5054581;28;20161;-75
2021/01/13 02:17:53;;;;;;;4.15;1.70;;;0.80;1.00;;;;;;5054358;28;20156;-75
2021/01/13 02:20:25;;;;;;;4.68;1.30;;;0.80;1.00;;;;;;5054429;28;20166;-75
2021/01/13 02:22:52;;;;;;;13.02;1.83;;;0.90;1.00;;;;;;5043484;28;20231;-75
2021/01/13 02:25:53;;;;;;;1.67;1.58;;;0.80;1.00;;;;;;5034013;28;20168;-75
2021/01/13 02:29:11;;;;;;;0.68;0.68;;;0.80;1.00;;;;;;5044224;28;20186;-84
2021/01/13 02:32:31;;;;;;;0.90;0.90;;;0.80;1.00;;;;;;5054673;28;20152;-84
2021/01/13 02:38:50;;;;;;;1.52;1.40;;;0.80;1.00;;;;;;5029633;28;20220;-84
2021/01/13 02:41:19;;;;;;;3.85;1.25;;;0.80;1.00;;;;;;5010535;28;20184;-75
2021/01/13 02:47:07;;;;;;;0.60;0.60;;;0.80;1.00;;;;;;5012744;28;20586;-75
2021/01/13 02:52:26;;;;;;;2.92;0.95;;;0.80;1.00;;;;;;5012395;28;20165;-75
2021/01/13 02:55:15;;;;;;;1.38;1.27;;;0.70;1.00;;;;;;5019339;28;20521;-75
2021/01/13 02:57:51;;;;;;;8.68;1.15;;;0.70;1.00;;;;;;5032329;28;20169;-80
2021/01/13 03:00:30;;;;;;;1.92;1.10;;;0.70;1.00;;;;;;5032196;28;20195;-84
2021/01/13 03:09:46;;;;;;;1.10;1.10;;;0.40;1.00;;;;;;5048925;28;20241;-75
2021/01/13 03:12:26;;;;;;;1.27;0.68;;;0.30;1.00;;;;;;5053858;28;20195;-75
2021/01/13 03:14:57;;;;;;;0.93;0.93;;;0.30;1.00;;;;;;5037673;28;20207;-74
2021/01/13 03:17:29;;;;;;;10.48;0.77;;;0.20;1.00;;;;;;5033734;28;20161;-75
2021/01/13 03:20:09;;;;;;;0.70;0.70;;;0.20;1.00;;;;;;5033843;28;20164;-75
2021/01/13 03:23:22;;;;;;;1.30;1.05;;;0.20;1.00;;;;;;5036331;28;20245;-85
2021/01/13 03:26:07;;;;;;;1.38;0.90;;;0.20;1.00;;;;;;5024696;28;20184;-75
2021/01/13 03:28:37;;;;;;;1.30;1.20;;;0.20;1.00;;;;;;5012561;28;20771;-75
2021/01/13 03:31:10;;;;;;;2.35;1.00;;;0.20;1.00;;;;;;5011652;28;20211;-75
2021/01/13 03:34:05;;;;;;;2.50;0.90;;;0.20;1.00;;;;;;5011624;28;20173;-75
2021/01/13 03:37:01;;;;;;;30.48;1.70;;;0.10;1.00;;;;;;5011543;28;20203;-74
2021/01/13 03:39:55;;;;;;;2.97;1.33;;;0.10;1.00;;;;;;5017024;28;20180;-84
2021/01/13 03:42:41;;;;;;;2.72;1.20;;;0.10;1.00;;;;;;5020298;28;20311;-76
2021/01/13 03:45:13;;;;;;;6.15;1.40;;;0.00;1.00;;;;;;5016723;28;20656;-75
2021/01/13 03:48:01;;;;;;;1.45;1.30;;;0.00;1.00;;;;;;5034453;28;20183;-75
2021/01/13 03:50:55;;;;;;;2.92;1.33;;;0.00;1.00;;;;;;5035446;28;20164;-85
2021/01/13 03:57:01;;;;;;;0.60;0.60;;;-0.10;1.00;;;;;;5036067;28;20159;-84
2021/01/13 03:59:50;;;;;;;8.68;1.80;;;-0.10;1.00;;;;;;5035590;28;20192;-84
2021/01/13 04:03:01;;;;;;;7.25;1.13;;;-0.20;1.00;;;;;;5033164;28;20311;-75
2021/01/13 04:05:30;;;;;;;1.08;0.55;;;-0.20;1.00;;;;;;5034072;28;20656;-75
2021/01/13 04:08:12;;;;;;;4.13;1.60;;;-0.20;1.00;;;;;;5035070;28;20191;-75
2021/01/13 04:11:17;;;;;;;1.33;1.23;;;-0.20;1.00;;;;;;5034866;28;20196;-74
2021/01/13 04:14:35;;;;;;;1.05;0.73;;;-0.30;1.00;;;;;;5035452;28;20251;-84
2021/01/13 04:17:41;;;;;;;1.90;0.70;;;-0.30;1.00;;;;;;5034871;28;20190;-84
2021/01/13 04:20:12;;;;;;;0.90;0.90;;;-0.40;1.00;;;;;;5018597;28;20627;-77
2021/01/13 04:22:38;;;;;;;65.93;1.50;;;-0.40;1.00;;;;;;5034553;28;20231;-75
2021/01/13 04:25:41;;;;;;;1.05;1.05;;;-0.40;1.00;;;;;;5018257;28;20172;-84
2021/01/13 04:28:29;;;;;;;0.98;0.98;;;-0.40;1.00;;;;;;5035040;28;20176;-75
2021/01/13 04:31:02;;;;;;;0.88;0.70;;;-0.40;1.00;;;;;;5034737;28;20177;-75
2021/01/13 04:34:11;;;;;;;3.80;1.13;;;-0.40;1.00;;;;;;5034879;28;20156;-84
2021/01/13 04:36:49;;;;;;;2.70;1.05;;;-0.50;1.00;;;;;;5029191;28;20188;-75
2021/01/13 04:39:30;;;;;;;2.25;1.52;;;;;;;;;;5014785;28;20165;-84
2021/01/13 04:42:02;;;;;;;8.85;1.15;;;-0.50;1.00;;;;;;5030156;28;20696;-74
2021/01/13 04:44:45;;;;;;;2.20;1.63;;;-0.60;1.00;;;;;;5044852;28;20179;-75
2021/01/13 04:47:12;;;;;;;5.55;1.30;;;-0.60;1.00;;;;;;5056313;28;20159;-74
2021/01/13 04:49:38;;;;;;;1.35;1.25;;;-0.70;1.00;;;;;;5056276;28;20175;-75
2021/01/13 04:52:30;;;;;;;7.28;1.08;;;-0.70;1.00;;;;;;5055881;28;20172;-74
2021/01/13 04:55:07;;;;;;;1.42;0.80;;;-0.70;1.00;;;;;;5056238;28;20561;-74
2021/01/13 04:57:54;;;;;;;1.77;0.70;;;-0.70;1.00;;;;;;5055284;28;20183;-75
2021/01/13 05:01:05;;;;;;;2.90;1.40;;;-0.70;1.00;;;;;;5048942;28;20669;-84
2021/01/13 05:03:44;;;;;;;1.52;0.73;;;-0.70;1.00;;;;;;5056177;28;20227;-75
2021/01/13 05:06:31;;;;;;;4.45;1.77;;;-0.70;1.00;;;;;;5048957;28;20214;-75
2021/01/13 05:12:54;;;;;;;1.98;0.75;;;-0.70;1.00;;;;;;5055872;28;20290;-83
2021/01/13 05:15:52;;;;;;;1.00;1.00;;;-0.80;1.00;;;;;;5054682;28;20528;-84
2021/01/13 05:18:42;;;;;;;16.77;1.35;;;-0.80;1.00;;;;;;5051325;28;20175;-85
2021/01/13 05:21:27;;;;;;;0.73;0.73;;;-0.90;1.00;;;;;;5056179;28;20168;-85
2021/01/13 05:24:00;;;;;;;0.90;0.50;;;-0.90;1.00;;;;;;5055821;28;20222;-75
2021/01/13 05:26:31;;;;;;;4.93;0.75;;;-0.90;1.00;;;;;;5051728;28;20164;-75
2021/01/13 05:29:36;;;;;;;2.08;0.90;;;-0.90;1.00;;;;;;5036016;28;20180;-85
2021/01/13 05:32:13;;;;;;;30.75;1.85;;;-0.90;1.00;;;;;;5035665;28;20191;-74
2021/01/13 05:35:02;;;;;;;0.70;0.63;;;-1.00;1.00;;;;;;5053983;28;20168;-75
2021/01/13 05:38:11;;;;;;;2.28;1.08;;;-0.90;1.00;;;;;;5055102;28;20163;-75
2021/01/13 05:41:26;;;;;;;4.53;1.27;;;-0.90;1.00;;;;;;5054418;28;20152;-75
2021/01/13 05:44:11;;;;;;;7.32;1.13;;;;;;;;;;5051538;28;20697;-76
2021/01/13 05:47:04;;;;;;;0.68;0.68;;;-0.80;1.00;;;;;;5036528;28;20179;-75
2021/01/13 05:49:48;;;;;;;4.40;1.45;;;-0.80;1.00;;;;;;5053146;28;20201;-74
2021/01/13 05:52:31;;;;;;;0.95;0.95;;;-0.80;1.00;;;;;;5052977;28;20179;-75
2021/01/13 05:55:18;;;;;;;6.32;0.85;;;-0.70;1.00;;;;;;5052881;28;20187;-75
2021/01/13 05:57:58;;;;;;;0.85;0.85;;;-0.70;1.00;;;;;;5052989;28;20613;-74
2021/01/13 06:00:36;;;;;;;3.80;1.90;;;-0.60;1.00;;;;;;5051659;28;20493;-75
2021/01/13 06:03:12;;;;;;;8.30;1.40;;;-0.60;1.00;;;;;;5035395;28;20861;-75
2021/01/13 06:05:50;;;;;;;1.17;0.65;;;-0.50;1.00;;;;;;5045974;28;20179;-74
2021/01/13 06:11:41;;;;;;;1.58;0.60;;;-0.50;1.00;;;;;;5053117;28;20159;-75
2021/01/13 06:14:12;;;;;;;3.13;1.15;;;-0.50;1.00;;;;;;5052755;28;20671;-75
2021/01/13 06:16:49;;;;;;;0.85;0.85;;;-0.50;1.00;;;;;;5053141;28;20194;-75
2021/01/13 06:19:46;;;;;;;6.35;1.80;;;-0.50;1.00;;;;;;5049586;28;20670;-75
2021/01/13 06:22:43;;;;;;;1.75;1.10;;;-0.50;1.00;;;;;;5040775;28;20282;-81
2021/01/13 06:25:12;;;;;;;5.68;1.70;;;-0.50;1.00;;;;;;5054694;28;20168;-75
2021/01/13 06:27:59;;;;;;;1.30;0.90;;;-0.50;1.00;;;;;;5054644;28;20163;-75
2021/01/13 06:30:43;;;;;;;4.40;1.60;;;-0.50;1.00;;;;;;5041391;28;20182;-84
2021/01/13 06:33:38;;;;;;;1.20;0.73;;;-0.50;1.00;;;;;;5033560;28;20172;-74
2021/01/13 06:36:41;;;;;;;1.42;1.15;;;-0.50;1.00;;;;;;5034612;28;20164;-84
2021/01/13 06:39:13;;;;;;;7.20;1.42;;;-0.50;1.00;;;;;;5043955;28;20223;-75
2021/01/13 06:42:11;;;;;;;9.55;1.20;;;-0.60;1.00;;;;;;5053871;28;20242;-75
2021/01/13 06:48:00;;;;;;;4.60;2.05;;;-0.60;1.00;;;;;;5043880;28;20241;-75
2021/01/13 06:50:41;;;;;;;7.70;2.25;;;-0.50;1.00;;;;;;5054242;28;20195;-75
2021/01/13 06:53:09;;;;;;;3.72;1.48;;;-0.50;1.00;;;;;;5053793;28;20563;-84
2021/01/13 06:56:12;;;;;;;1.95;1.40;;;-0.50;1.00;;;;;;5046556;28;20202;-85
2021/01/13 06:58:38;;;;;;;20.25;1.75;;;;;;;;;;5052020;28;20175;-75
2021/01/13 07:01:05;;;;;;;1.23;1.00;;;-0.50;1.00;;;;;;5040161;28;20173;-75
2021/01/13 07:03:42;;;;;;;5.25;1.50;;;-0.40;1.00;;;;;;5033836;28;20215;-84
2021/01/13 07:06:11;;;;;;;1.83;1.17;;;-0.40;1.00;;;;;;5039054;28;20179;-75
2021/01/13 07:08:42;;;;;;;2.15;1.00;;;-0.30;1.00;;;;;;5049233;28;20168;-75
2021/01/13 07:11:11;;;;;;;7.32;1.00;;;-0.30;1.00;;;;;;5046057;28;20635;-75
2021/01/13 07:14:11;;;;;;;1.73;1.42;;;-0.30;1.00;;;;;;5033910;28;20191;-84
2021/01/13 07:16:43;;;;;;;4.97;2.75;;;;;;;;;;5033347;28;20184;-84
2021/01/13 07:19:45;;;;;;;0.95;0.95;;;-0.40;1.00;;;;;;5044053;28;20206;-84
2021/01/13 07:22:14;;;;;;;1.70;1.10;;;-0.30;1.00;;;;;;5050416;28;20294;-84
2021/01/13 07:24:43;;;;;;;5.40;1.52;;;-0.30;1.00;;;;;;5046584;28;20177;-84
2021/01/13 07:27:13;;;;;;;32.95;1.70;;;;;;;;;;5055626;28;20207;-84
2021/01/13 07:29:39;;;;;;;3.85;2.13;;;;;;;;;;5043430;28;20176;-85
2021/01/13 07:32:06;;;;;;;2.63;1.58;;;-0.20;1.00;;;;;;5039278;28;20175;-84
2021/01/13 07:34:32;;;;;;;1.30;1.20;;;;;;;;;;5043286;28;20169;-84
2021/01/13 07:37:01;;;;;;;1.40;1.30;;;-0.10;1.00;;;;;;5041558;28;20182;-84
2021/01/13 07:40:08;;;;;;;3.92;1.20;;;-0.10;1.00;;;;;;5048915;28;20433;-78
2021/01/13 07:42:44;;;;;;;1.75;1.50;;;-0.10;1.00;;;;;;5050299;28;20567;-77
2021/01/13 07:45:16;;;;;;;1.80;0.90;;;0.10;1.00;;;;;;5040837;28;20737;-84
2021/01/13 07:48:05;;;;;;;0.90;0.90;;;0.20;1.00;;;;;;5053079;28;20160;-83
2021/01/13 07:50:33;;;;;;;2.25;2.10;;;0.20;1.00;;;;;;5034366;28;20712;-75
2021/01/13 07:53:08;;;;;;;1.67;1.17;;;0.30;1.00;;;;;;5032171;28;20184;-75
2021/01/13 07:55:43;;;;;;;1.33;1.20;;;0.40;1.00;;;;;;5036957;28;20175;-75
2021/01/13 07:58:20;;;;;;;1.40;1.10;;;0.50;1.00;;;;;;5048737;28;20536;-75
2021/01/13 08:01:08;;;;;;;13.35;2.33;;;0.60;1.00;;;;;;5035409;28;20219;-75
2021/01/13 08:04:11;;;;;;;5.63;1.77;;;0.70;1.00;;;;;;5032327;28;20208;-75
2021/01/13 08:06:47;;;;;;;1.77;1.67;;;0.80;1.00;;;;;;5042772;28;20267;-84
2021/01/13 08:09:18;;;;;;;6.70;1.73;;;0.80;1.00;;;;;;5034224;28;20172;-85
2021/01/13 08:12:02;;;;;;;2.13;1.08;;;0.90;1.00;;;;;;5046521;28;20186;-76
2021/01/13 08:14:46;;;;;;;1.35;1.35;;;0.90;1.00;;;;;;5050919;28;20172;-75
2021/01/13 08:17:37;;;;;;;5.40;1.50;;;1.00;1.00;;;;;;5052833;28;20207;-75
2021/01/13 08:20:33;;;;;;;3.33;1.60;;;1.00;1.00;;;;;;5036637;28;20176;-77
2021/01/13 08:23:07;;;;;;;1.77;1.60;;;1.00;1.00;;;;;;5032450;28;20181;-81
2021/01/13 08:25:36;;;;;;;1.20;1.10;;;1.00;1.00;;;;;;5031854;28;20211;-84
2021/01/13 08:28:02;;;;;;;5.63;1.35;;;1.00;1.00;;;;;;5050785;28;20187;-73
2021/01/13 08:30:30;;;;;;;14.65;1.98;;;1.10;1.00;;;;;;5053266;28;20191;-74
2021/01/13 08:33:35;;;;;;;2.88;1.40;;;1.10;1.00;;;;;;5042619;28;20184;-83
2021/01/13 08:36:15;;;;;;;4.50;1.65;;;1.20;1.00;;;;;;5046064;28;20180;-84
2021/01/13 08:39:07;;;;;;;3.55;2.00;;;1.20;1.00;;;;;;5048723;28;20183;-84
2021/01/13 08:41:37;;;;;;;5.13;1.55;;;1.40;1.00;;;;;;5039351;28;20180;-84
2021/01/13 08:44:18;;;;;;;1.63;1.40;;;1.50;1.00;;;;;;5042999;28;20207;-84
2021/01/13 08:47:03;;;;;;;9.35;1.95;;;1.70;1.00;;;;;;5046843;28;20179;-84
2021/01/13 08:49:31;;;;;;;7.47;1.88;;;1.80;1.00;;;;;;5043013;28;20214;-84
2021/01/13 08:55:19;;;;;;;17.92;2.30;;;;;;;;;;5054372;28;20183;-84
2021/01/13 08:58:35;;;;;;;4.70;2.90;;;2.10;1.00;;;;;;5051816;28;20168;-84
2021/01/13 09:01:12;;;;;;;2.90;2.13;;;2.20;1.00;;;;;;5054933;28;20275;-84
2021/01/13 09:03:44;;;;;;;4.78;2.65;;;2.30;1.00;;;;;;5056204;28;20744;-76
2021/01/13 09:06:25;;;;;;;2.75;1.85;;;2.40;1.00;;;;;;5055188;28;20258;-76
2021/01/13 09:08:54;;;;;;;10.02;1.85;;;2.50;1.00;;;;;;5046663;28;20517;-76
2021/01/13 09:11:35;;;;;;;4.30;2.28;;;2.50;1.00;;;;;;5039672;28;20702;-75
2021/01/13 09:14:24;;;;;;;5.22;2.47;;;2.50;1.00;;;;;;5044550;28;20503;-76
2021/01/13 09:17:14;;;;;;;4.05;1.95;;;2.60;1.00;;;;;;5055541;28;20502;-76
2021/01/13 09:19:43;;;;;;;8.05;2.25;;;2.70;1.00;;;;;;5052173;28;20218;-84
2021/01/13 09:22:14;;;;;;;8.60;2.55;;;2.80;1.00;;;;;;5054819;28;20762;-84
2021/01/13 09:24:57;;;;;;;3.22;2.30;;;2.80;1.00;;;;;;5056032;28;20148;-84
2021/01/13 09:27:35;;;;;;;8.15;2.60;;;2.80;1.00;;;;;;5055319;28;20212;-84
2021/01/13 09:30:37;;;;;;;5.05;2.55;;;2.90;1.00;;;;;;5040617;28;20267;-84
2021/01/13 09:33:07;;;;;;;2.30;1.55;;;2.90;1.00;;;;;;5030610;28;20226;-84
2021/01/13 09:35:35;;;;;;;7.70;1.50;;;2.80;1.00;;;;;;5032958;28;20196;-83
2021/01/13 09:38:08;;;;;;;2.50;1.30;;;2.70;1.00;;;;;;5012225;28;20204;-84
2021/01/13 09:44:41;;;;;;;8.65;2.03;;;2.90;1.00;;;;;;5026325;28;20220;-84
2021/01/13 09:47:41;;;;;;;7.05;2.55;;;3.10;1.00;;;;;;5024384;28;20183;-84
2021/01/13 09:50:11;;;;;;;11.95;2.30;;;3.20;1.00;;;;;;5016297;28;20188;-84
2021/01/13 09:52:44;;;;;;;6.15;2.25;;;3.40;1.00;;;;;;5032558;28;20176;-83
2021/01/13 09:55:41;;;;;;;3.20;2.00;;;3.50;1.00;;;;;;5033643;28;20218;-84
2021/01/13 09:58:36;;;;;;;2.45;2.10;;;3.50;1.00;;;;;;5017240;28;20183;-84
2021/01/13 10:01:17;;;;;;;5.47;2.50;;;;;;;;;;5016911;28;20196;-84
2021/01/13 10:04:17;;;;;;;8.57;2.08;;;3.40;1.00;;;;;;5017297;28;20550;-83
2021/01/13 10:07:23;;;;;;;5.18;1.92;;;3.40;1.00;;;;;;5016793;28;20176;-84
2021/01/13 10:10:12;;;;;;;5.45;2.00;;;3.30;1.00;;;;;;5027773;28;20214;-84
2021/01/13 10:12:46;;;;;;;5.45;2.13;;;;;;;;;;5034066;28;20188;-84
2021/01/13 10:15:32;;;;;;;2.33;1.70;;;3.30;1.00;;;;;;5053658;28;20175;-85
2021/01/13 10:18:03;;;;;;;6.35;1.83;;;;;;;;;;5049105;28;20809;-81
2021/01/13 10:20:30;;;;;;;7.60;2.15;;;3.40;1.00;;;;;;5043865;28;20179;-81
2021/01/13 10:23:12;;;;;;;2.53;2.03;;;3.30;1.00;;;;;;5036882;28;20234;-81
2021/01/13 10:25:43;;;;;;;4.88;2.30;;;3.50;1.00;;;;;;5041757;28;20176;-82
2021/01/13 10:28:11;;;;;;;5.10;1.58;;;3.70;1.00;;;;;;5036185;28;20180;-82
2021/01/13 10:30:42;;;;;;;1.30;1.10;;;3.70;1.00;;;;;;5045029;28;20168;-82
2021/01/13 10:33:08;;;;;;;5.38;1.80;;;3.70;1.00;;;;;;5049824;28;20183;-76
2021/01/13 10:36:06;;;;;;;5.13;1.50;;;3.80;1.00;;;;;;5050418;28;20529;-76
2021/01/13 10:38:50;;;;;;;1.27;1.17;;;3.90;1.00;;;;;;5038439;28;20176;-75
2021/01/13 10:41:48;;;;;;;8.77;2.30;;;4.00;1.00;;;;;;5036793;28;20184;-75
2021/01/13 10:44:22;;;;;;;1.95;1.25;;;4.00;1.00;;;;;;5052875;28;20194;-75
2021/01/13 10:47:01;;;;;;;4.50;1.75;;;4.00;1.00;;;;;;5048767;28;20183;-75
2021/01/13 10:49:46;;;;;;;3.72;1.23;;;4.00;1.00;;;;;;5049760;28;20171;-76
2021/01/13 10:52:24;;;;;;;1.33;1.23;;;4.00;1.00;;;;;;5033211;28;20184;-75
2021/01/13 10:54:54;;;;;;;3.72;1.35;;;4.00;1.00;;;;;;5034409;28;20187;-75
2021/01/13 10:57:31;;;;;;;5.00;1.88;;;;;;;;;;5045014;28;20642;-75
2021/01/13 11:00:08;;;;;;;4.80;1.98;;;4.00;1.00;;;;;;5048884;28;20198;-74
2021/01/13 11:02:34;;;;;;;1.27;1.20;;;4.00;1.00;;;;;;5050369;28;20221;-75
2021/01/13 11:05:01;;;;;;;3.10;1.30;;;4.00;1.00;;;;;;5050629;28;20698;-74
2021/01/13 11:07:38;;;;;;;1.15;1.05;;;4.10;1.00;;;;;;5043960;28;20183;-74
2021/01/13 11:10:05;;;;;;;3.28;1.92;;;4.00;1.00;;;;;;5036702;28;20233;-75
2021/01/13 11:12:31;;;;;;;3.97;2.00;;;4.00;1.00;;;;;;5046065;28;20180;-75
2021/01/13 11:14:57;;;;;;;3.90;2.75;;;4.00;1.00;;;;;;5052976;28;20446;-75
2021/01/13 11:17:26;;;;;;;1.80;1.37;;;4.10;1.00;;;;;;5048641;28;20183;-75
2021/01/13 11:19:52;;;;;;;3.00;1.20;;;;;;;;;;5033833;28;20523;-81
2021/01/13 11:22:20;;;;;;;1.50;1.40;;;4.30;1.00;;;;;;5051550;28;20202;-81
2021/01/13 11:24:50;;;;;;;1.52;1.15;;;4.40;1.00;;;;;;5052904;28;20831;-82
2021/01/13 11:27:21;;;;;;;3.63;2.10;;;4.40;1.00;;;;;;5041704;28;20186;-81
2021/01/13 11:29:52;;;;;;;11.13;2.20;;;4.50;1.00;;;;;;5044085;28;20183;-75
2021/01/13 11:32:20;;;;;;;1.23;1.17;;;4.50;1.00;;;;;;5041692;28;20176;-75
2021/01/13 11:34:50;;;;;;;19.23;2.22;;;4.60;1.00;;;;;;5033321;28;20529;-81
2021/01/13 11:37:37;;;;;;;1.30;1.20;;;4.70;1.00;;;;;;5037504;28;20263;-80
2021/01/13 11:40:08;;;;;;;3.40;1.25;;;4.80;1.00;;;;;;5042946;28;20175;-74
2021/01/13 11:42:48;;;;;;;2.17;1.20;;;4.70;1.00;;;;;;5032294;28;20204;-75
2021/01/13 11:45:26;;;;;;;4.43;1.70;;;4.80;1.00;;;;;;5052124;28;20176;-75
2021/01/13 11:48:04;;;;;;;3.53;1.08;;;4.80;1.00;;;;;;5039341;28;20215;-81
2021/01/13 11:53:53;;;;;;;1.88;1.38;;;5.00;1.00;;;;;;5032950;28;20234;-81
2021/01/13 11:56:31;;;;;;;15.60;1.30;;;5.00;1.00;;;;;;5041926;28;20187;-80
2021/01/13 11:58:58;;;;;;;2.13;1.00;;;5.00;1.00;;;;;;5052795;28;20192;-80
2021/01/13 12:01:25;;;;;;;4.22;1.33;;;5.10;1.00;;;;;;5033430;28;20180;-80
2021/01/13 12:04:01;;;;;;;9.18;1.20;;;5.10;1.00;;;;;;5048448;28;20675;-80
2021/01/13 12:06:27;;;;;;;1.63;1.05;;;;;;;;;;5035960;28;20264;-75
2021/01/13 12:08:53;;;;;;;4.63;1.37;;;;;;;;;;5050402;28;20687;-80
2021/01/13 12:11:21;;;;;;;1.65;1.08;;;;;;;;;;5042820;28;20463;-81
2021/01/13 12:13:47;;;;;;;5.85;1.30;;;;;;;;;;5056080;28;20647;-75
2021/01/13 12:16:19;;;;;;;1.67;1.33;;;5.40;1.00;;;;;;5055079;28;20203;-75
2021/01/13 12:18:47;;;;;;;16.25;1.67;;;5.50;1.00;;;;;;5045304;28;20238;-80
2021/01/13 12:21:13;;;;;;;0.80;0.80;;;;;;;;;;5056015;28;20647;-80
2021/01/13 12:23:40;;;;;;;5.30;2.00;;;5.30;1.00;;;;;;5056011;28;20191;-80
2021/01/13 12:26:28;;;;;;;4.75;1.70;;;5.40;1.00;;;;;;5050828;28;20437;-80
2021/01/13 12:28:56;;;;;;;4.28;1.50;;;5.50;1.00;;;;;;5038153;28;20176;-80
2021/01/13 12:31:22;;;;;;;1.85;1.13;;;5.50;1.00;;;;;;5039069;28;20250;-79
2021/01/13 12:33:53;;;;;;;8.05;1.45;;;5.60;1.00;;;;;;5035992;28;20227;-79
2021/01/13 12:36:21;;;;;;;5.05;1.20;;;5.50;1.00;;;;;;5040615;28;20174;-81
2021/01/13 12:38:47;;;;;;;4.13;1.33;;;;;;;;;;5035616;28;20169;-80
2021/01/13 12:41:26;;;;;;;2.35;1.10;;;5.60;1.00;;;;;;5035706;28;20603;-80
2021/01/13 12:43:53;;;;;;;1.38;1.05;;;5.50;1.00;;;;;;5035157;28;20241;-80
2021/01/13 12:46:30;;;;;;;7.53;1.10;;;5.50;1.00;;;;;;5035763;28;20185;-79
2021/01/13 12:48:57;;;;;;;4.65;1.38;;;5.60;1.00;;;;;;5035504;28;20669;-75
2021/01/13 12:51:23;;;;;;;2.50;1.13;;;;;;;;;;5037855;28;20175;-74
2021/01/13 12:53:53;;;;;;;1.47;1.30;;;5.60;1.00;;;;;;5035225;28;20422;-74
2021/01/13 12:56:22;;;;;;;1.30;1.20;;;5.60;1.00;;;;;;5035089;28;20419;-74
2021/01/13 12:58:48;;;;;;;4.28;1.58;;;;;;;;;;5042275;28;20238;-74
2021/01/13 13:01:14;;;;;;;3.35;1.10;;;;;;;;;;5054917;28;20219;-74
2021/01/13 13:03:40;;;;;;;2.65;1.42;;;;;;;;;;5055133;28;20187;-74
2021/01/13 13:06:09;;;;;;;2.20;1.40;;;;;;;;;;5048343;28;20203;-80
2021/01/13 13:08:35;;;;;;;6.10;1.47;;;5.50;1.00;;;;;;5035264;28;20376;-79
2021/01/13 13:11:02;;;;;;;2.10;1.40;;;;;;;;;;5035237;28;20398;-80
2021/01/13 13:13:28;;;;;;;4.43;1.40;;;;;;;;;;5034969;28;20214;-74
2021/01/13 13:15:54;;;;;;;3.13;1.73;;;;;;;;;;5039192;28;20530;-79
2021/01/13 13:18:20;;;;;;;2.50;1.13;;;;;;;;;;5054722;28;20460;-80
2021/01/13 13:20:46;;;;;;;1.10;0.93;;;;;;;;;;5050355;28;20449;-80
2021/01/13 13:23:12;;;;;;;2.33;1.30;;;;;;;;;;5053201;28;20450;-79
2021/01/13 13:25:38;;;;;;;1.97;1.23;;;;;;;;;;5052410;28;20434;-80
2021/01/13 13:28:04;;;;;;;2.37;1.07;;;;;;;;;;5054573;28;20391;-80
2021/01/13 13:30:30;;;;;;;1.20;1.10;;;;;;;;;;5054601;28;20401;-79
2021/01/13 13:32:56;;;;;;;2.35;1.13;;;;;;;;;;5054468;28;20222;-74
2021/01/13 13:35:22;;;;;;;1.37;0.93;;;;;;;;;;5054760;28;20553;-74
2021/01/13 13:37:51;;;;;;;3.10;0.80;;;;;;;;;;5054055;28;20394;-74
2021/01/13 13:40:17;;;;;;;1.80;0.87;;;;;;;;;;5053055;28;20418;-79
2021/01/13 13:42:43;;;;;;;2.88;1.10;;;;;;;;;;5053762;28;20728;-74
2021/01/13 13:45:09;;;;;;;6.93;0.90;;;5.80;1.00;;;;;;5054170;28;20631;-79
2021/01/13 13:47:35;;;;;;;2.00;0.60;;;;;;;;;;5054305;28;20192;-84
2021/01/13 13:50:01;;;;;;;0.87;0.87;;;;;;;;;;5054636;28;20243;-75
2021/01/13 13:52:27;;;;;;;1.05;1.05;;;;;;;;;;5053933;28;20456;-76
2021/01/13 13:54:53;;;;;;;2.40;0.90;;;;;;;;;;5054057;28;20164;-75
2021/01/13 13:57:19;;;;;;;0.70;0.70;;;;;;;;;;5054047;28;20749;-80
2021/01/13 13:59:45;;;;;;;0.93;0.80;;;;;;;;;;5053817;28;20434;-82
2021/01/13 14:02:10;;;;;;;1.57;1.00;;;5.30;1.00;;;;;;5052507;28;20993;-80
2021/01/13 14:04:36;;;;;;;0.80;0.80;;;;;;;;;;5054001;28;20410;-75
2021/01/13 14:07:06;;;;;;;5.70;0.93;;;5.30;1.00;;;;;;5053774;28;20647;-82
2021/01/13 14:09:32;;;;;;;5.75;1.10;;;;;;;;;;5053738;28;20422;-75
2021/01/13 14:11:58;;;;;;;2.20;0.97;;;;;;;;;;5053739;28;20188;-75
2021/01/13 14:14:24;;;;;;;1.50;0.67;;;;;;;;;;5053715;28;20535;-82
2021/01/13 14:16:53;;;;;;;1.43;1.10;;;5.30;1.00;;;;;;5048561;28;20437;-81
2021/01/13 14:19:19;;;;;;;1.85;1.00;;;;;;;;;;5048780;28;20510;-80
2021/01/13 14:21:45;;;;;;;0.80;0.80;;;;;;;;;;5035818;28;20255;-74
2021/01/13 14:24:11;;;;;;;2.05;0.90;;;;;;;;;;5035741;28;20237;-73
2021/01/13 14:26:37;;;;;;;2.28;0.90;;;;;;;;;;5053687;28;20152;-74
2021/01/13 14:29:03;;;;;;;1.73;0.87;;;;;;;;;;5053396;28;20634;-74
2021/01/13 14:31:36;;;;;;;1.30;0.80;;;5.10;1.00;;;;;;5053386;28;20395;-74
2021/01/13 14:34:03;;;;;;;0.85;0.85;;;5.00;1.00;;;;;;5053649;28;20187;-74
2021/01/13 14:36:29;;;;;;;3.25;1.00;;;;;;;;;;5053565;28;20166;-74
2021/01/13 14:38:55;;;;;;;2.00;0.80;;;;;;;;;;5053435;28;20155;-81
2021/01/13 14:41:28;;;;;;;1.25;1.08;;;5.00;1.00;;;;;;5053370;28;20390;-74
2021/01/13 14:43:54;;;;;;;0.70;0.70;;;;;;;;;;5053112;28;20282;-80
2021/01/13 14:46:20;;;;;;;1.58;0.77;;;4.90;1.00;;;;;;5053466;28;20148;-74
2021/01/13 14:48:46;;;;;;;0.73;0.73;;;;;;;;;;5053090;28;20167;-74
2021/01/13 14:51:12;;;;;;;0.40;0.30;;;;;;;;;;5053585;28;20250;-74
2021/01/13 14:53:38;;;;;;;4.10;1.38;;;;;;;;;;5053261;28;20533;-74
2021/01/13 14:56:05;;;;;;;1.37;0.80;;;;;;;;;;5053241;28;20250;-80
2021/01/13 14:58:31;;;;;;;3.55;0.70;;;;;;;;;;5053322;28;20394;-81
2021/01/13 15:00:57;;;;;;;0.93;0.93;;;;;;;;;;5053038;28;20569;-74
2021/01/13 15:03:22;;;;;;;1.48;1.10;;;;;;;;;;5052963;28;20453;-74
2021/01/13 15:05:49;;;;;;;0.77;0.60;;;;;;;;;;5053347;28;20156;-74
2021/01/13 15:11:49;;;;;;;2.45;0.98;;;4.70;1.00;;;;;;5033533;28;20661;-80
2021/01/13 15:14:19;;;;;;;10.43;3.15;;;4.70;1.00;;;;;;5033647;28;20651;-78
2021/01/13 15:23:10;;;;;;;4.97;0.95;;;4.70;1.00;;;;;;5033725;28;20689;-80
2021/01/13 15:25:36;;;;;;;6.00;1.60;;;4.60;1.00;;;;;;5046596;28;20183;-82
2021/01/13 15:28:47;;;;;;;1.38;1.00;;;4.60;1.00;;;;;;5053705;28;20758;-82
2021/01/13 15:34:48;;;;;;;2.85;1.10;;;4.50;1.00;;;;;;5053327;28;20210;-79
2021/01/13 15:37:30;;;;;;;1.85;1.05;;;4.40;1.00;;;;;;5041950;28;20536;-74
2021/01/13 15:40:20;;;;;;;1.55;0.80;;;;;;;;;;5042592;28;20188;-74
2021/01/13 15:42:46;;;;;;;0.70;0.70;;;4.30;1.00;;;;;;5042916;28;20199;-74
2021/01/13 15:45:13;;;;;;;2.55;1.08;;;4.20;1.00;;;;;;5038816;28;20698;-74
2021/01/13 15:47:40;;;;;;;2.38;1.20;;;4.20;1.00;;;;;;5048024;28;20179;-74
2021/01/13 15:50:06;;;;;;;2.20;1.20;;;4.10;1.00;;;;;;5051726;28;20179;-71
2021/01/13 15:52:47;;;;;;;3.70;1.25;;;4.10;1.00;;;;;;5046833;28;20875;-71
2021/01/13 15:58:52;;;;;;;5.07;1.25;;;3.90;1.00;;;;;;5057312;28;20186;-79
2021/01/13 16:01:18;;;;;;;7.95;1.58;;;3.80;1.00;;;;;;5057063;28;20258;-80
2021/01/13 16:03:48;;;;;;;4.60;1.20;;;3.80;1.00;;;;;;5056710;28;20708;-80
2021/01/13 16:06:15;;;;;;;1.70;1.20;;;3.80;1.00;;;;;;5040698;28;20215;-80
2021/01/13 16:08:45;;;;;;;4.75;1.60;;;3.70;1.00;;;;;;5037040;28;20180;-80
2021/01/13 16:11:14;;;;;;;2.20;1.17;;;3.70;1.00;;;;;;5037055;28;20202;-80
2021/01/13 16:14:16;;;;;;;7.63;1.73;;;3.60;1.00;;;;;;5036695;28;20168;-80